AirNav   Everest Fuels
 
 590 users online  

4M1 Carroll County Airport
Berryville, Arkansas, USA

GOING TO BERRYVILLE?


FAA INFORMATION EFFECTIVE 20 JUNE 2019

Location

FAA Identifier: 4M1
Lat/Long: 36-22-52.8000N / 093-37-28.4000W
36-22.880000N / 093-37.473333W
36.3813333 / -93.6245556
(estimated)
Elevation: 1205.5 ft. / 367.4 m (surveyed)
Variation: 02E (2010)
From city: 3 miles W of BERRYVILLE, AR
Time zone: UTC -5 (UTC -6 during Standard Time)
Zip code: 72616

Airport Operations

Airport use: Open to the public
Activation date: 05/1966
Control tower: no
ARTCC: MEMPHIS CENTER
FSS: JONESBORO FLIGHT SERVICE STATION
NOTAMs facility: JBR (NOTAM-D service available)
Attendance: MON-FRI 0800-1600
Wind indicator: lighted
Segmented circle: yes
Lights: ACTVT MIRL RY 07/25, TWY LGTS, REIL RYS 07 & 25 - CTAF.
Beacon: white-green (lighted land airport)
Operates sunset to sunrise.

Airport Communications

CTAF: 122.9
RAZORBACK APPROACH: 126.6
RAZORBACK DEPARTURE: 126.6
  • APCH/DEP SERVICE PRVDD BY MEMPHIS ARTCC ON FREQS 126.1/269.0 (FAYETTEVILLE RCAG) WHEN RAZORBACK APCH CTL CLSD.

Nearby radio navigation aids

VOR radial/distance  VOR name  Freq  Var
HROr277/20.2HARRISON VOR/DME112.5004E
RZCr067/25.3RAZORBACK VORTAC116.4004E

Airport Services

Fuel available: 100LL
FUEL AVBL 24 HR SELF SERVE WITH CREDIT CARD.
Parking: hangars and tiedowns
Airframe service: MAJOR
Powerplant service: MAJOR
Bottled oxygen: NONE
Bulk oxygen: NONE

Runway Information

Runway 7/25

Dimensions: 3554 x 75 ft. / 1083 x 23 m
Surface: asphalt, in excellent condition
Weight bearing capacity: 
Single wheel: 12.0
Runway edge lights: medium intensity
RUNWAY 7  RUNWAY 25
Latitude: 36-22.797025N36-22.964125N
Longitude: 093-37.819565W093-37.125405W
Elevation: 1166.6 ft.1204.9 ft.
Traffic pattern: leftleft
Runway heading: 071 magnetic, 073 true251 magnetic, 253 true
Markings: nonprecision, in fair conditionnonprecision, in fair condition
Visual slope indicator: 2-light PAPI on left (3.00 degrees glide path)2-light PAPI on left (4.00 degrees glide path)
Runway end identifier lights: yesyes
Touchdown point: yes, no lightsyes, no lights

Airport Ownership and Management from official FAA records

Ownership: Publicly-owned
Owner: CARROLL COUNTY
210 WEST CHURCH ST.
BERRYVILLE, AR 72616
Phone 870-423-2668
Manager: MICHAEL PFEIFER
518 COUNTY ROAD 308
BERRYVILLE, AR 72616
Phone 870-423-8393

Airport Operational Statistics

Aircraft based on the field: 19
Single engine airplanes: 13
Multi engine airplanes: 1
Ultralights: 5
    
Aircraft operations: avg 50/day *
55% transient general aviation
44% local general aviation
1% military
* for 12-month period ending 31 August 2015

Additional Remarks

NO LINE OF SIGHT BTN RY ENDS.
ULTRALIGHT ACTIVITY ON & INVOF ARPT.
DEER ON & INVOF ARPT.
FOR CD CTC MEMPHIS ARTCC AT 901-368-8453.

Instrument Procedures

NOTE: All procedures below are presented as PDF files. If you need a reader for these files, you should download the free Adobe Reader.

NOT FOR NAVIGATION. Please procure official charts for flight.
FAA instrument procedures published for use from 20 June 2019 at 0901Z to 19 July 2019 at 0900Z.

 
IAPs - Instrument Approach Procedures
RNAV (GPS) RWY 07   download (221KB)
RNAV (GPS) RWY 25   download (261KB)
NOTE: Special Take-Off Minimums/Departure Procedures apply   download (131KB)

Other nearby airports with instrument procedures:

H34 - Huntsville Municipal Airport (19 nm S)
KFWB - Branson West Municipal Airport - Emerson Field (22 nm NE)
KBBG - Branson Airport (22 nm NE)
94K - Cassville Municipal Airport (23 nm NW)
KROG - Rogers Executive Airport - Carter Field (23 nm W)
 
Loc | Ops | Rwys | IFR | FBO | Links
Com | Nav | Svcs | Stats | Notes

Branson Jet Center
AirBoss

 
Area around 4M1 (Carroll County Airport)
 
Road maps at: MapQuest Bing Google
 
Aerial photo
WARNING: Photo may not be current or correct
Aerial photo of 4M1 (Carroll County Airport)
Photo courtesy of the Arkansas Department of Aeronautics
Taken in the Spring of 2007

Do you have a better or more recent aerial photo of Carroll County Airport that you would like to share? If so, please send us your photo.

 
Sectional chart

 
Airport distance calculator
Flying to Carroll County Airport? Find the distance to fly.

From to 4M1

Sunrise and sunset
Times for 16-Jul-2019
 Local
(UTC-5)
 Zulu
(UTC)
Morning civil twilight05:4010:40
Sunrise06:1011:10
Sunset20:3101:31
Evening civil twilight21:0102:01

Current date and time
Zulu (UTC)  16-Jul-2019 05:21:51
Local (UTC-5)  16-Jul-2019 00:21:51
 
METAR
KFWB 
22nm NE 
160455Z AUTO 00000KT 10SM BKN049 22/22 A2992 RMK AO2
KROG 
22nm W 
160458Z AUTO 24003KT 10SM SCT120 22/21 A2994 RMK AO2 SLP124 T02220211 402560200 PNO $
KBBG 
22nm NE 
160455Z AUTO 00000KT 10SM OVC029 22/22 A2992 RMK AO2
KHRO 
24nm E 
160453Z AUTO 00000KT 5SM -RA BR OVC048 22/22 A2992 RMK AO2 RAB0357 SLP117 P0005 T02220217
KASG 
27nm SW 
160148Z 28003KT 10SM BKN027 OVC031 23/23 A2990
KVBT 
29nm W 
160456Z AUTO 22003KT 10SM CLR 23/22 A2995 RMK AO2 SLP132 T02280217
KXNA 
33nm W 
160453Z AUTO 24004KT 10SM CLR 22/20 A2993 RMK AO2 SLP120 T02220200
KFYV 
34nm SW 
160453Z AUTO 20003KT 10SM BKN037 OVC065 22/22 A2993 RMK AO2 SLP121 T02220222
KHFJ 
37nm NW 
160455Z AUTO 00000KT 10SM CLR 21/21 A2992 RMK AO2
KSLG 
42nm W 
160456Z AUTO 10SM OVC024 23/21 A2994 RMK AO2 SLP127 T02280211
TAF
KROG 
22nm W 
160336Z 1604/1624 00000KT P6SM FEW026 OVC060 FM160800 VRB03KT P6SM BKN015 FM161600 26007KT P6SM SCT025 BKN035
KBBG 
22nm NE 
160312Z 1603/1624 VRB04KT P6SM VCSH BKN025 TEMPO 1603/1607 2SM -SHRA BKN003 BKN015 FM160900 00000KT 3SM BR OVC008 FM161200 VRB03KT 2SM BR OVC005 FM161400 VRB04KT 4SM BR OVC010 FM162200 24005KT P6SM SCT100
KHRO 
24nm E 
160000Z 1600/1624 VRB05KT P6SM VCSH SCT015 OVC035 TEMPO 1600/1603 3SM -SHRA BR OVC015 FM160300 VRB04KT 5SM BR VCSH OVC030 FM160800 VRB03KT 2SM -RA BR OVC007 FM161500 27006KT P6SM VCSH OVC015 FM161800 26006KT P6SM BKN025 OVC050
NOTAMs
Click for the latest NOTAMs
NOTAMs are issued by the DoD/FAA and will open in a separate window not controlled by AirNav.

 

 
 

FBO, Fuel Providers, and Aircraft Ground Support

  
 Business Name 
 
 Contact 
 
 Services / Description 
 
Fuel Prices
 
Comments
  
Carroll County Airport 870-423-8393
870-423-2120
[web site]
[email]

Like us on facebook
Airport management, Aviation fuel, Aircraft parking (ramp or tiedown), Hangars, Hangar leasing / sales, Passenger terminal and lounge, Flight training, ...

More info about Carroll County Airport
Shell
100LL
SS $4.45 
 Updated 09-Jul-2019
 
   6 read write
SS=Self service
Update Fuel Prices
 

Would you like to see your business listed on this page?

 If your business provides an interesting product or service to pilots, flight crews, aircraft, or users of the Carroll County Airport, you should consider listing it here.  To start the listing process, click on the button below
 
Add a business
 

Other Pages about Carroll County Airport

co.carroll.ar.us
Carroll County Airport
 
Update a link
 
Copyright © AirNav, LLC. All rights reserved. Privacy Policy  Contact